createdAt,value
2019-04-07T00:01:26.439Z,9.80
2019-04-07T00:03:56.613Z,9.90
2019-04-07T00:06:26.961Z,9.90
2019-04-07T00:08:55.709Z,10.00
2019-04-07T00:11:24.466Z,10.10
2019-04-07T00:13:55.272Z,10.20
2019-04-07T00:16:24.214Z,10.30
2019-04-07T00:18:53.474Z,10.40
2019-04-07T00:21:22.318Z,10.50
2019-04-07T00:23:51.581Z,10.50
2019-04-07T00:26:20.372Z,10.40
2019-04-07T00:28:49.059Z,10.40
2019-04-07T00:31:19.365Z,10.40
2019-04-07T00:33:48.590Z,10.30
2019-04-07T00:36:17.792Z,10.00
2019-04-07T00:38:47.065Z,9.90
2019-04-07T00:41:15.821Z,9.80
2019-04-07T00:43:44.584Z,9.60
2019-04-07T00:46:13.668Z,9.50
2019-04-07T00:48:44.265Z,9.50
2019-04-07T00:51:13.197Z,9.40
2019-04-07T00:53:41.925Z,9.40
2019-04-07T00:56:16.603Z,9.30
2019-04-07T00:58:45.672Z,9.20
2019-04-07T01:01:18.112Z,9.10
2019-04-07T01:03:46.803Z,9.00
2019-04-07T01:06:21.889Z,8.90
2019-04-07T01:08:52.451Z,8.90
2019-04-07T01:11:23.122Z,8.80
2019-04-07T01:13:51.940Z,8.80
2019-04-07T01:16:20.789Z,8.90
2019-04-07T01:18:50.219Z,8.90
2019-04-07T01:21:21.773Z,8.90
2019-04-07T01:23:50.439Z,8.90
2019-04-07T01:26:19.074Z,8.80
2019-04-07T01:28:48.217Z,8.80
2019-04-07T01:31:17.632Z,8.80
2019-04-07T01:33:46.859Z,8.70
2019-04-07T01:36:16.083Z,8.70
2019-04-07T01:38:45.427Z,8.70
2019-04-07T01:41:19.513Z,8.60
2019-04-07T01:44:00.136Z,8.60
2019-04-07T01:46:30.673Z,8.60
2019-04-07T01:49:10.962Z,8.60
2019-04-07T01:51:44.582Z,8.60
2019-04-07T01:54:17.983Z,8.50
2019-04-07T01:56:58.039Z,8.40
2019-04-07T01:59:37.875Z,8.40
2019-04-07T02:02:14.745Z,8.40
2019-04-07T02:05:03.429Z,8.40
2019-04-07T02:07:40.095Z,8.40
2019-04-07T02:10:13.788Z,8.40
2019-04-07T02:12:50.683Z,8.40
2019-04-07T02:15:40.743Z,8.40
2019-04-07T02:18:13.533Z,8.40
2019-04-07T02:21:04.351Z,8.30
2019-04-07T02:23:51.384Z,8.30
2019-04-07T02:29:09.220Z,8.20
2019-04-07T02:31:40.126Z,8.20
2019-04-07T02:34:13.677Z,8.20
2019-04-07T02:36:49.990Z,8.10
2019-04-07T02:39:36.828Z,8.10
2019-04-07T02:42:07.447Z,8.00
2019-04-07T02:44:40.964Z,8.00
2019-04-07T02:47:11.493Z,8.00
2019-04-07T02:49:48.608Z,8.10
2019-04-07T02:52:35.725Z,8.20
2019-04-07T02:55:13.073Z,8.10
2019-04-07T02:57:47.579Z,8.10
2019-04-07T03:00:24.645Z,8.10
2019-04-07T03:03:04.788Z,8.20
2019-04-07T03:05:38.425Z,8.20
2019-04-07T03:08:21.342Z,8.20
2019-04-07T03:10:55.371Z,8.20
2019-04-07T03:13:26.219Z,8.10
2019-04-07T03:16:02.110Z,8.10
2019-04-07T03:18:48.871Z,8.20
2019-04-07T03:21:19.630Z,8.20
2019-04-07T03:23:51.198Z,8.10
2019-04-07T03:26:40.712Z,8.10
2019-04-07T03:29:14.102Z,8.00
2019-04-07T03:31:54.299Z,8.00
2019-04-07T03:34:30.628Z,8.00
2019-04-07T03:37:18.302Z,8.00
2019-04-07T03:39:49.188Z,8.10
2019-04-07T03:42:37.017Z,8.00
2019-04-07T03:48:08.564Z,8.00
2019-04-07T03:50:41.737Z,7.90
2019-04-07T03:53:15.889Z,7.90
2019-04-07T03:55:51.657Z,7.90
2019-04-07T03:58:38.454Z,7.80
2019-04-07T04:01:25.941Z,7.70
2019-04-07T04:04:15.608Z,7.60
2019-04-07T04:07:17.708Z,7.60
2019-04-07T04:09:42.833Z,7.60
2019-04-07T04:12:30.097Z,7.60
2019-04-07T04:15:01.683Z,7.60
2019-04-07T04:17:30.726Z,7.60
2019-04-07T04:20:04.176Z,7.50
2019-04-07T04:22:33.002Z,7.50
2019-04-07T04:25:02.808Z,7.40
2019-04-07T04:27:31.606Z,7.30
2019-04-07T04:30:00.933Z,7.30
2019-04-07T04:32:30.794Z,7.30
2019-04-07T04:35:00.971Z,7.20
2019-04-07T04:37:40.323Z,7.20
2019-04-07T04:40:00.371Z,7.20
2019-04-07T04:42:29.085Z,7.10
2019-04-07T04:44:58.870Z,7.20
2019-04-07T04:47:27.791Z,7.20
2019-04-07T04:49:56.428Z,7.20
2019-04-07T04:52:26.412Z,7.20
2019-04-07T04:54:56.892Z,7.20
2019-04-07T04:57:25.817Z,7.20
2019-04-07T04:59:54.469Z,7.20
2019-04-07T05:02:23.555Z,7.20
2019-04-07T05:04:52.781Z,7.20
2019-04-07T05:07:22.832Z,7.30
2019-04-07T05:09:55.099Z,7.30
2019-04-07T05:12:23.158Z,7.30
2019-04-07T05:14:51.902Z,7.20
2019-04-07T05:17:24.270Z,7.30
2019-04-07T05:19:53.403Z,7.40
2019-04-07T05:22:22.550Z,7.50
2019-04-07T05:24:52.092Z,7.60
2019-04-07T05:27:20.740Z,7.70
2019-04-07T05:29:52.180Z,7.90
2019-04-07T05:32:21.221Z,8.00
2019-04-07T05:34:50.462Z,8.20
2019-04-07T05:37:19.255Z,8.40
2019-04-07T05:39:48.393Z,8.60
2019-04-07T05:42:17.512Z,8.90
2019-04-07T05:44:46.631Z,9.10
2019-04-07T05:47:15.538Z,9.30
2019-04-07T05:49:44.590Z,9.40
2019-04-07T05:52:13.961Z,9.50
2019-04-07T05:54:42.900Z,9.60
2019-04-07T05:57:11.880Z,9.70
2019-04-07T05:59:42.256Z,9.90
2019-04-07T06:02:11.110Z,10.10
2019-04-07T06:04:40.382Z,10.50
2019-04-07T06:07:09.195Z,10.70
2019-04-07T06:09:37.755Z,10.80
2019-04-07T06:12:09.822Z,11.00
2019-04-07T06:14:38.936Z,11.30
2019-04-07T06:17:07.645Z,11.30
2019-04-07T06:19:41.127Z,11.40
2019-04-07T06:22:08.656Z,11.70
2019-04-07T06:24:37.350Z,11.90
2019-04-07T06:27:06.210Z,12.00
2019-04-07T06:29:35.530Z,11.80
2019-04-07T06:32:09.257Z,11.70
2019-04-07T06:34:39.856Z,12.00
2019-04-07T06:37:07.721Z,12.10
2019-04-07T06:39:38.992Z,12.40
2019-04-07T06:42:08.491Z,12.50
2019-04-07T06:44:38.503Z,12.60
2019-04-07T06:47:15.945Z,12.40
2019-04-07T06:49:53.121Z,12.40
2019-04-07T06:52:38.697Z,12.50
2019-04-07T06:55:22.645Z,12.50
2019-04-07T06:58:07.544Z,12.40
2019-04-07T07:00:43.337Z,12.60
2019-04-07T07:03:19.886Z,12.70
2019-04-07T07:05:56.162Z,12.80
2019-04-07T07:08:43.773Z,13.00
2019-04-07T07:11:28.895Z,13.10
2019-04-07T07:13:59.986Z,13.10
2019-04-07T07:16:46.881Z,13.10
2019-04-07T07:19:33.127Z,13.30
2019-04-07T07:22:16.589Z,12.90
2019-04-07T07:24:50.245Z,13.20
2019-04-07T07:27:18.992Z,13.50
2019-04-07T07:29:48.938Z,13.70
2019-04-07T07:32:18.055Z,13.80
2019-04-07T07:34:46.800Z,13.60
2019-04-07T07:37:15.838Z,13.60
2019-04-07T07:39:45.094Z,13.50
2019-04-07T07:42:15.027Z,13.70
2019-04-07T07:44:43.905Z,13.90
2019-04-07T07:47:13.383Z,13.90
2019-04-07T07:49:42.489Z,14.10
2019-04-07T07:52:11.649Z,14.50
2019-04-07T07:54:41.027Z,14.70
2019-04-07T07:57:13.228Z,14.70
2019-04-07T07:59:43.280Z,15.00
2019-04-07T08:02:14.624Z,15.00
2019-04-07T08:04:42.452Z,15.20
2019-04-07T08:07:13.532Z,15.30
2019-04-07T08:09:42.163Z,15.50
2019-04-07T08:12:11.581Z,15.60
2019-04-07T08:14:42.661Z,15.60
2019-04-07T08:17:12.197Z,15.50
2019-04-07T08:19:42.634Z,15.40
2019-04-07T08:22:11.642Z,15.50
2019-04-07T08:24:40.579Z,15.80
2019-04-07T08:27:09.271Z,15.90
2019-04-07T08:29:39.569Z,15.70
2019-04-07T08:32:08.617Z,15.80
2019-04-07T08:34:37.275Z,16.00
2019-04-07T08:37:08.367Z,16.10
2019-04-07T08:39:37.491Z,15.90
2019-04-07T08:42:09.739Z,15.80
2019-04-07T08:44:36.787Z,15.70
2019-04-07T08:47:05.587Z,15.80
2019-04-07T08:49:35.367Z,16.00
2019-04-07T08:52:09.965Z,16.00
2019-04-07T08:54:37.173Z,15.80
2019-04-07T08:57:05.985Z,15.90
2019-04-07T08:59:35.389Z,15.90
2019-04-07T09:02:08.537Z,16.20
2019-04-07T09:04:44.238Z,16.00
2019-04-07T09:07:12.213Z,16.40
2019-04-07T09:09:46.628Z,16.40
2019-04-07T09:12:11.483Z,16.30
2019-04-07T09:14:43.978Z,16.50
2019-04-07T09:17:38.465Z,17.10
2019-04-07T09:20:06.143Z,17.00
2019-04-07T09:22:40.721Z,17.30
2019-04-07T09:25:14.710Z,17.00
2019-04-07T09:27:52.325Z,17.00
2019-04-07T09:30:34.590Z,17.20
2019-04-07T09:33:08.189Z,17.50
2019-04-07T09:35:58.894Z,17.60
2019-04-07T09:38:29.962Z,17.30
2019-04-07T09:41:00.553Z,17.30
2019-04-07T09:43:40.349Z,17.70
2019-04-07T09:46:14.664Z,18.00
2019-04-07T09:48:59.914Z,17.70
2019-04-07T09:51:30.977Z,18.20
2019-04-07T09:54:05.208Z,18.10
2019-04-07T09:56:52.987Z,17.90
2019-04-07T09:59:42.919Z,17.70
2019-04-07T10:02:34.133Z,18.00
2019-04-07T10:05:06.770Z,18.70
2019-04-07T10:07:40.313Z,18.90
2019-04-07T10:10:16.086Z,18.60
2019-04-07T10:13:01.956Z,18.40
2019-04-07T10:15:36.169Z,18.70
2019-04-07T10:18:08.681Z,19.90
2019-04-07T10:20:47.978Z,19.80
2019-04-07T10:23:27.622Z,20.00
2019-04-07T10:25:58.730Z,19.70
2019-04-07T10:28:32.339Z,19.40
2019-04-07T10:31:05.461Z,19.80
2019-04-07T10:33:44.965Z,19.90
2019-04-07T10:36:21.630Z,20.50
2019-04-07T10:38:54.130Z,21.10
2019-04-07T10:41:26.271Z,20.70
2019-04-07T10:44:12.978Z,20.40
2019-04-07T10:47:00.390Z,19.80
2019-04-07T10:49:57.981Z,19.90
2019-04-07T10:52:41.335Z,19.90
2019-04-07T10:55:17.422Z,19.70
2019-04-07T10:57:48.140Z,19.10
2019-04-07T11:00:35.188Z,18.50
2019-04-07T11:03:11.003Z,18.40
2019-04-07T11:05:42.741Z,18.20
2019-04-07T11:08:16.551Z,18.00
2019-04-07T11:11:06.267Z,17.70
2019-04-07T11:13:53.423Z,17.90
2019-04-07T11:16:39.989Z,17.90
2019-04-07T11:19:19.272Z,18.30
2019-04-07T11:21:53.902Z,18.20
2019-04-07T11:24:39.138Z,18.60
2019-04-07T11:27:23.433Z,18.10
2019-04-07T11:29:53.929Z,18.00
2019-04-07T11:32:28.244Z,18.30
2019-04-07T11:35:17.869Z,18.00
2019-04-07T11:37:54.303Z,18.00
2019-04-07T11:40:41.979Z,18.40
2019-04-07T11:43:03.361Z,18.00
2019-04-07T11:45:57.455Z,18.20
2019-04-07T11:48:21.005Z,18.50
2019-04-07T11:50:52.150Z,18.90
2019-04-07T11:53:23.201Z,19.20
2019-04-07T11:56:06.929Z,19.20
2019-04-07T11:58:36.571Z,19.20
2019-04-07T12:01:12.790Z,19.10
2019-04-07T12:03:53.454Z,19.40
2019-04-07T12:06:28.193Z,19.40
2019-04-07T12:09:04.871Z,19.20
2019-04-07T12:11:52.556Z,19.30
2019-04-07T12:14:25.688Z,18.90
2019-04-07T12:17:13.483Z,19.10
2019-04-07T12:19:47.334Z,19.00
2019-04-07T12:22:20.277Z,18.90
2019-04-07T12:24:57.477Z,18.80
2019-04-07T12:27:25.952Z,18.90
2019-04-07T12:29:56.895Z,19.30
2019-04-07T12:32:34.219Z,19.60
2019-04-07T12:35:10.808Z,19.80
2019-04-07T12:37:50.707Z,20.00
2019-04-07T12:40:36.590Z,20.10
2019-04-07T12:43:07.470Z,20.40
2019-04-07T12:45:40.556Z,19.80
2019-04-07T12:48:15.629Z,19.70
2019-04-07T12:50:48.987Z,19.50
2019-04-07T12:53:32.100Z,20.20
2019-04-07T12:56:13.414Z,20.90
2019-04-07T12:58:51.654Z,20.70
2019-04-07T13:01:25.001Z,20.50
2019-04-07T13:03:58.975Z,20.20
2019-04-07T13:06:50.742Z,20.20
2019-04-07T13:09:36.595Z,20.70
2019-04-07T13:12:20.325Z,20.20
2019-04-07T13:14:53.720Z,19.50
2019-04-07T13:17:24.949Z,19.70
2019-04-07T13:19:58.666Z,20.00
2019-04-07T13:22:43.610Z,19.20
2019-04-07T13:25:32.677Z,18.90
2019-04-07T13:28:04.282Z,18.50
2019-04-07T13:30:53.029Z,18.40
2019-04-07T13:33:31.734Z,18.70
2019-04-07T13:36:23.561Z,18.80
2019-04-07T13:39:12.099Z,19.00
2019-04-07T13:42:03.328Z,19.10
2019-04-07T13:44:53.735Z,19.00
2019-04-07T13:47:38.682Z,18.90
2019-04-07T13:50:25.111Z,18.40
2019-04-07T13:53:12.182Z,18.40
2019-04-07T13:56:03.467Z,18.50
2019-04-07T13:58:50.859Z,18.50
2019-04-07T14:01:23.251Z,18.60
2019-04-07T14:04:12.043Z,18.50
2019-04-07T14:06:46.736Z,18.30
2019-04-07T14:09:20.013Z,18.00
2019-04-07T14:12:04.891Z,18.00
2019-04-07T14:14:34.820Z,18.10
2019-04-07T14:17:11.936Z,18.20
2019-04-07T14:19:51.078Z,18.30
2019-04-07T14:22:37.315Z,18.30
2019-04-07T14:25:12.884Z,18.10
2019-04-07T14:28:00.163Z,17.90
2019-04-07T14:30:46.292Z,18.10
2019-04-07T14:33:17.826Z,18.10
2019-04-07T14:35:54.299Z,17.90
2019-04-07T14:38:34.518Z,17.90
2019-04-07T14:41:17.227Z,17.90
2019-04-07T14:43:53.013Z,17.90
2019-04-07T14:46:23.815Z,18.10
2019-04-07T14:49:13.501Z,18.00
2019-04-07T14:51:43.247Z,18.00
2019-04-07T14:54:16.427Z,17.70
2019-04-07T14:56:58.815Z,17.60
2019-04-07T14:59:41.668Z,17.70
2019-04-07T15:02:11.641Z,17.70
2019-04-07T15:04:43.615Z,17.70
2019-04-07T15:07:17.238Z,17.80
2019-04-07T15:09:48.380Z,17.80
2019-04-07T15:12:23.715Z,17.90
2019-04-07T15:14:49.242Z,17.80
2019-04-07T15:17:18.035Z,17.60
2019-04-07T15:19:54.334Z,17.50
2019-04-07T15:22:28.896Z,17.40
2019-04-07T15:24:53.798Z,17.50
2019-04-07T15:27:24.896Z,17.60
2019-04-07T15:29:53.195Z,17.50
2019-04-07T15:32:26.622Z,17.40
2019-04-07T15:34:52.586Z,17.40
2019-04-07T15:37:23.572Z,17.40
2019-04-07T15:39:51.742Z,17.40
2019-04-07T15:42:33.122Z,17.40
2019-04-07T15:44:52.999Z,17.60
2019-04-07T15:47:22.258Z,17.40
2019-04-07T15:49:51.360Z,17.20
2019-04-07T15:52:23.144Z,17.10
2019-04-07T15:54:53.703Z,17.10
2019-04-07T15:57:22.940Z,17.10
2019-04-07T15:59:54.047Z,17.00
2019-04-07T16:02:30.005Z,17.10
2019-04-07T16:05:02.618Z,17.10
2019-04-07T16:07:35.215Z,17.10
2019-04-07T16:10:10.431Z,17.00
2019-04-07T16:12:47.350Z,16.90
2019-04-07T16:15:15.796Z,17.00
2019-04-07T16:17:43.839Z,16.90
2019-04-07T16:20:22.877Z,16.80
2019-04-07T16:22:50.476Z,16.80
2019-04-07T16:25:19.629Z,16.90
2019-04-07T16:27:51.023Z,16.90
2019-04-07T16:30:21.567Z,16.90
2019-04-07T16:32:59.703Z,16.90
2019-04-07T16:35:26.504Z,16.80
2019-04-07T16:37:58.325Z,16.80
2019-04-07T16:40:26.952Z,16.70
2019-04-07T16:43:09.916Z,16.70
2019-04-07T16:45:31.634Z,16.70
2019-04-07T16:48:00.326Z,16.60
2019-04-07T16:50:29.502Z,16.60
2019-04-07T16:53:00.415Z,16.60
2019-04-07T16:55:46.537Z,16.60
2019-04-07T16:58:15.945Z,16.60
2019-04-07T17:00:45.406Z,16.50
2019-04-07T17:03:15.249Z,16.50
2019-04-07T17:05:48.118Z,16.50
2019-04-07T17:08:19.577Z,16.40
2019-04-07T17:10:48.581Z,16.30
2019-04-07T17:13:24.813Z,16.30
2019-04-07T17:15:50.736Z,16.30
2019-04-07T17:18:41.257Z,16.30
2019-04-07T17:21:20.307Z,16.20
2019-04-07T17:23:53.304Z,16.20
2019-04-07T17:26:21.680Z,16.10
2019-04-07T17:28:49.976Z,16.10
2019-04-07T17:31:21.108Z,16.00
2019-04-07T17:33:49.411Z,16.00
2019-04-07T17:36:24.003Z,15.90
2019-04-07T17:39:09.669Z,15.90
2019-04-07T17:41:49.090Z,15.80
2019-04-07T17:44:38.997Z,15.80
2019-04-07T17:47:09.841Z,15.80
2019-04-07T17:49:56.628Z,15.70
2019-04-07T17:52:31.613Z,15.70
2019-04-07T17:55:11.162Z,15.60
2019-04-07T17:57:45.032Z,15.50
2019-04-07T18:00:21.773Z,15.40
2019-04-07T18:02:54.932Z,15.30
2019-04-07T18:05:40.730Z,15.30
2019-04-07T18:08:15.731Z,15.20
2019-04-07T18:10:50.772Z,15.10
2019-04-07T18:13:46.015Z,15.10
2019-04-07T18:16:22.847Z,15.00
2019-04-07T18:19:05.257Z,14.90
2019-04-07T18:21:53.944Z,14.90
2019-04-07T18:24:46.679Z,14.90
2019-04-07T18:27:25.937Z,14.70
2019-04-07T18:29:59.640Z,14.60
2019-04-07T18:32:37.498Z,14.30
2019-04-07T18:35:18.074Z,14.10
2019-04-07T18:38:00.774Z,14.10
2019-04-07T18:40:42.899Z,14.00
2019-04-07T18:43:32.178Z,13.90
2019-04-07T18:46:21.482Z,13.80
2019-04-07T18:49:06.088Z,13.60
2019-04-07T18:51:54.594Z,13.50
2019-04-07T18:54:42.381Z,13.40
2019-04-07T18:57:29.441Z,13.20
2019-04-07T19:00:04.302Z,13.20
2019-04-07T19:02:44.299Z,13.00
2019-04-07T19:05:33.404Z,12.90
2019-04-07T19:08:05.064Z,12.80
2019-04-07T19:10:45.463Z,12.60
2019-04-07T19:13:35.766Z,12.60
2019-04-07T19:16:10.735Z,12.50
2019-04-07T19:18:54.774Z,12.30
2019-04-07T19:21:37.256Z,12.30
2019-04-07T19:24:18.429Z,12.20
2019-04-07T19:27:12.649Z,12.20
2019-04-07T19:29:46.287Z,12.10
2019-04-07T19:32:23.566Z,12.10
2019-04-07T19:35:02.629Z,12.10
2019-04-07T19:37:33.242Z,12.10
2019-04-07T19:40:09.474Z,12.00
2019-04-07T19:43:02.624Z,11.90
2019-04-07T19:45:33.120Z,11.80
2019-04-07T19:50:55.028Z,11.70
2019-04-07T19:53:43.257Z,11.60
2019-04-07T19:56:12.350Z,11.50
2019-04-07T19:58:55.593Z,11.50
2019-04-07T20:01:42.702Z,11.50
2019-04-07T20:04:31.108Z,11.40
2019-04-07T20:07:10.463Z,11.30
2019-04-07T20:09:58.888Z,11.30
2019-04-07T20:12:45.435Z,11.20
2019-04-07T20:15:38.077Z,11.20
2019-04-07T20:18:29.261Z,11.20
2019-04-07T20:21:08.306Z,11.20
2019-04-07T20:23:41.545Z,11.20
2019-04-07T20:26:15.832Z,11.20
2019-04-07T20:28:45.145Z,11.30
2019-04-07T20:31:31.746Z,11.30
2019-04-07T20:34:09.729Z,11.30
2019-04-07T20:36:48.041Z,11.20
2019-04-07T20:39:24.869Z,11.20
2019-04-07T20:41:58.838Z,11.20
2019-04-07T20:44:43.052Z,11.30
2019-04-07T20:47:17.602Z,11.20
2019-04-07T20:50:00.120Z,11.20
2019-04-07T20:52:44.949Z,11.20
2019-04-07T20:55:15.579Z,11.20
2019-04-07T20:57:54.947Z,11.20
2019-04-07T21:00:23.762Z,11.00
2019-04-07T21:03:10.771Z,10.90
2019-04-07T21:05:44.161Z,10.90
2019-04-07T21:08:18.572Z,11.00
2019-04-07T21:10:52.658Z,11.00
2019-04-07T21:13:41.785Z,11.00
2019-04-07T21:16:23.671Z,11.00
2019-04-07T21:18:50.168Z,10.90
2019-04-07T21:21:23.469Z,10.90
2019-04-07T21:23:57.349Z,10.90
2019-04-07T21:26:31.327Z,10.70
2019-04-07T21:29:28.095Z,10.50
2019-04-07T21:32:01.531Z,10.50
2019-04-07T21:34:47.763Z,10.50
2019-04-07T21:37:33.755Z,10.60
2019-04-07T21:40:08.425Z,10.70
2019-04-07T21:42:38.610Z,10.70
2019-04-07T21:45:15.335Z,10.70
2019-04-07T21:47:48.570Z,10.60
2019-04-07T21:50:33.866Z,10.20
2019-04-07T21:53:14.260Z,10.00
2019-04-07T21:55:49.718Z,9.80
2019-04-07T21:58:35.668Z,9.80
2019-04-07T22:01:23.021Z,9.60
2019-04-07T22:03:54.500Z,9.60
2019-04-07T22:06:29.786Z,9.60
2019-04-07T22:09:02.820Z,9.60
2019-04-07T22:11:31.459Z,9.50
2019-04-07T22:14:04.155Z,9.40
2019-04-07T22:16:35.422Z,9.40
2019-04-07T22:19:04.337Z,9.40
2019-04-07T22:21:34.368Z,9.40
2019-04-07T22:24:03.103Z,9.40
2019-04-07T22:26:33.481Z,9.30
2019-04-07T22:29:04.563Z,9.30
2019-04-07T22:31:49.245Z,9.30
2019-04-07T22:34:18.620Z,9.20
2019-04-07T22:36:48.079Z,9.10
2019-04-07T22:39:17.044Z,9.10
2019-04-07T22:41:46.245Z,9.20
2019-04-07T22:44:19.984Z,9.20
2019-04-07T22:46:49.469Z,9.20
2019-04-07T22:49:17.707Z,9.30
2019-04-07T22:51:47.546Z,9.30
2019-04-07T22:54:17.052Z,9.30
2019-04-07T22:56:46.641Z,9.30
2019-04-07T22:59:15.470Z,9.30
2019-04-07T23:01:44.442Z,9.30
2019-04-07T23:04:13.975Z,9.20
2019-04-07T23:06:45.798Z,9.20
2019-04-07T23:09:17.655Z,9.20
2019-04-07T23:11:46.320Z,9.20
2019-04-07T23:14:18.691Z,9.10
2019-04-07T23:16:47.458Z,9.00
2019-04-07T23:19:19.291Z,9.00
2019-04-07T23:21:51.252Z,8.90
2019-04-07T23:24:21.536Z,8.80
2019-04-07T23:26:51.798Z,8.70
2019-04-07T23:29:20.438Z,8.70
2019-04-07T23:31:49.407Z,8.80
2019-04-07T23:34:19.044Z,8.70
2019-04-07T23:36:47.976Z,8.70
2019-04-07T23:39:18.103Z,8.80
2019-04-07T23:41:46.918Z,8.80
2019-04-07T23:44:16.061Z,8.70
2019-04-07T23:46:44.846Z,8.50
2019-04-07T23:49:13.883Z,8.40
2019-04-07T23:51:43.412Z,8.40
2019-04-07T23:54:14.349Z,8.40
2019-04-07T23:56:45.881Z,8.50
2019-04-07T23:59:15.143Z,8.50
